createdAt,value
2023-03-22T00:00:38.073Z,31.52
2023-03-22T00:06:05.210Z,32.38
2023-03-22T00:11:32.054Z,31.48
2023-03-22T00:16:59.111Z,30.85
2023-03-22T00:22:26.373Z,31.67
2023-03-22T00:27:53.681Z,31.88
2023-03-22T00:33:21.760Z,30.80
2023-03-22T00:38:49.198Z,31.48
2023-03-22T00:44:16.273Z,32.15
2023-03-22T00:49:45.452Z,29.85
2023-03-22T00:55:13.025Z,30.40
2023-03-22T01:00:40.580Z,31.25
2023-03-22T01:06:08.931Z,30.45
2023-03-22T01:11:36.470Z,29.17
2023-03-22T01:17:04.907Z,30.33
2023-03-22T01:22:32.187Z,30.30
2023-03-22T01:27:59.639Z,28.60
2023-03-22T01:33:27.541Z,29.20
2023-03-22T01:38:55.121Z,30.85
2023-03-22T01:49:53.832Z,29.55
2023-03-22T01:55:23.701Z,29.65
2023-03-22T02:01:00.348Z,30.52
2023-03-22T02:06:42.759Z,31.48
2023-03-22T02:12:36.968Z,29.67
2023-03-22T02:18:39.281Z,30.98
2023-03-22T02:24:43.886Z,31.17
2023-03-22T02:30:32.133Z,29.85
2023-03-22T02:36:24.390Z,32.53
2023-03-22T02:42:06.452Z,30.33
2023-03-22T02:47:49.453Z,29.98
2023-03-22T02:53:22.919Z,31.00
2023-03-22T02:58:55.178Z,30.13
2023-03-22T03:04:29.119Z,30.25
2023-03-22T03:10:01.437Z,31.58
2023-03-22T03:15:28.662Z,32.80
2023-03-22T03:21:22.401Z,30.13
2023-03-22T03:27:07.489Z,32.08
2023-03-22T03:32:42.359Z,30.92
2023-03-22T03:38:15.270Z,31.40
2023-03-22T03:43:43.711Z,31.73
2023-03-22T03:49:13.231Z,30.00
2023-03-22T03:54:42.024Z,31.92
2023-03-22T04:00:15.372Z,30.77
2023-03-22T04:06:04.595Z,30.48
2023-03-22T04:11:36.732Z,32.45
2023-03-22T04:17:04.876Z,30.58
2023-03-22T04:22:34.780Z,32.67
2023-03-22T04:28:04.502Z,31.08
2023-03-22T04:33:39.711Z,30.38
2023-03-22T04:39:26.001Z,29.80
2023-03-22T04:45:03.786Z,29.70
2023-03-22T04:50:31.901Z,28.08
2023-03-22T04:56:05.911Z,30.00
2023-03-22T05:01:35.639Z,29.38
2023-03-22T05:07:12.286Z,29.52
2023-03-22T05:12:48.406Z,31.27
2023-03-22T05:18:26.494Z,34.20
2023-03-22T05:23:59.013Z,32.53
2023-03-22T05:29:28.322Z,36.25
2023-03-22T05:35:15.823Z,38.92
2023-03-22T05:40:49.620Z,38.30
2023-03-22T05:52:52.395Z,38.40
2023-03-22T05:58:44.007Z,36.60
2023-03-22T06:04:17.315Z,34.67
2023-03-22T06:10:05.854Z,32.53
2023-03-22T06:15:33.305Z,33.47
2023-03-22T06:21:06.885Z,31.85
2023-03-22T06:26:34.485Z,30.35
2023-03-22T06:32:03.969Z,29.73
2023-03-22T06:37:33.159Z,28.23
2023-03-22T06:43:05.122Z,26.88
2023-03-22T06:48:35.013Z,26.90
2023-03-22T06:54:06.448Z,24.50
2023-03-22T06:59:34.999Z,24.10
2023-03-22T07:05:03.314Z,24.10
2023-03-22T07:10:31.308Z,23.65
2023-03-22T07:16:01.719Z,23.95
2023-03-22T07:21:39.284Z,22.60
2023-03-22T07:27:11.474Z,22.58
2023-03-22T07:32:42.230Z,24.25
2023-03-22T07:38:13.989Z,22.85
2023-03-22T07:43:53.960Z,21.23
2023-03-22T07:49:24.458Z,22.98
2023-03-22T07:55:05.892Z,23.48
2023-03-22T08:00:34.000Z,22.25
2023-03-22T08:06:33.752Z,22.00
2023-03-22T08:12:01.748Z,20.70
2023-03-22T08:17:30.537Z,21.95
2023-03-22T08:22:57.892Z,20.48
2023-03-22T08:28:27.784Z,20.65
2023-03-22T08:33:55.682Z,17.02
2023-03-22T08:39:24.719Z,19.02
2023-03-22T08:45:11.135Z,18.33
2023-03-22T08:50:45.344Z,19.08
2023-03-22T08:56:22.889Z,17.80
2023-03-22T09:02:03.632Z,18.77
2023-03-22T09:07:31.841Z,18.48
2023-03-22T09:13:17.803Z,18.40
2023-03-22T09:18:51.588Z,19.15
2023-03-22T09:24:21.514Z,18.95
2023-03-22T09:29:54.645Z,16.83
2023-03-22T09:35:22.265Z,15.45
2023-03-22T09:41:06.600Z,17.33
2023-03-22T09:46:41.005Z,17.88
2023-03-22T09:52:14.850Z,15.32
2023-03-22T09:57:42.329Z,13.82
2023-03-22T10:03:22.082Z,13.95
2023-03-22T10:09:02.131Z,15.02
2023-03-22T10:15:05.289Z,15.07
2023-03-22T10:20:46.706Z,15.30
2023-03-22T10:26:34.913Z,12.82
2023-03-22T10:32:32.399Z,13.98
2023-03-22T10:38:03.828Z,13.52
2023-03-22T10:43:39.950Z,13.65
2023-03-22T10:49:08.505Z,13.27
2023-03-22T10:54:38.044Z,13.40
2023-03-22T11:00:13.881Z,14.07
2023-03-22T11:05:41.150Z,13.68
2023-03-22T11:11:20.943Z,13.95
2023-03-22T11:17:07.015Z,14.45
2023-03-22T11:22:48.538Z,15.80
2023-03-22T11:28:22.196Z,15.20
2023-03-22T11:34:01.012Z,14.98
2023-03-22T11:39:29.558Z,14.23
2023-03-22T11:44:57.680Z,13.95
2023-03-22T11:50:27.388Z,14.32
2023-03-22T11:55:58.118Z,13.15
2023-03-22T12:01:35.735Z,13.85
2023-03-22T12:07:11.847Z,12.85
2023-03-22T12:12:54.981Z,11.05
2023-03-22T12:18:38.914Z,11.57
2023-03-22T12:24:21.362Z,12.43
2023-03-22T12:30:00.287Z,12.10
2023-03-22T12:35:32.343Z,9.55
2023-03-22T12:41:05.024Z,8.87
2023-03-22T12:46:43.105Z,9.05
2023-03-22T12:52:13.006Z,7.47
2023-03-22T12:57:40.614Z,7.43
2023-03-22T13:03:23.368Z,7.32
2023-03-22T13:09:24.949Z,7.70
2023-03-22T13:15:01.964Z,6.63
2023-03-22T13:20:34.230Z,6.65
2023-03-22T13:26:06.225Z,5.95
2023-03-22T13:31:44.720Z,6.70
2023-03-22T13:37:31.347Z,5.70
2023-03-22T13:43:16.869Z,6.30
2023-03-22T13:48:47.997Z,6.75
2023-03-22T13:54:18.684Z,6.25
2023-03-22T14:00:15.129Z,6.70
2023-03-22T14:05:46.359Z,6.70
2023-03-22T14:11:55.859Z,5.65
2023-03-22T14:17:35.897Z,4.75
